Time;durP1;ratioP1;P1;durP2;ratioP2;P2;SDS_P1;SDS_P2;PMS_P1;PMS_P2;Temp;Humidity;BMP_temperature;BMP_pressure;BME280_temperature;BME280_humidity;BME280_pressure;Samples;Min_cycle;Max_cycle;Signal;HPM_P1;HPM_P2
2022/04/18 00:00:33;;;;;;;;;;;;;;;;;;4961669;28;19926;-86
2022/04/18 00:03:03;;;;;;;;;;;;;;;;;;4972290;28;19922;-86
2022/04/18 00:05:39;;;;;;;;;;;;;;;;;;4963880;28;20346;-86
2022/04/18 00:08:08;;;;;;;;;;;;;;;;;;4962207;28;19934;-86
2022/04/18 00:10:38;;;;;;;;;;;;;;;;;;4980071;28;19925;-86
2022/04/18 00:13:23;;;;;;;;;;;;;;;;;;4977394;28;20641;-86
2022/04/18 00:15:51;;;;;;;;;;;;;;;;;;4958392;28;20123;-86
2022/04/18 00:18:18;;;;;;;;;;;;;;;;;;4968102;28;20402;-86
2022/04/18 00:20:47;;;;;;;;;;;;;;;;;;4979841;28;19922;-86
2022/04/18 00:23:20;;;;;;;;;;;;;;;;;;4978455;28;19937;-86
2022/04/18 00:25:46;;;;;;;;;;;;;;;;;;4977553;28;20004;-86
2022/04/18 00:28:13;;;;;;;;;;;;;;;;;;4962327;28;19929;-86
2022/04/18 00:30:41;;;;;;;;;;;;;;;;;;4984454;28;19960;-86
2022/04/18 00:33:09;;;;;;;;;;;;;;;;;;4981596;28;21193;-86
2022/04/18 00:35:39;;;;;;;;;;;;;;;;;;4985629;28;20383;-86
2022/04/18 00:38:05;;;;;;;;;;;;;;;;;;4981850;28;19931;-86
2022/04/18 00:40:50;;;;;;;;;;;;;;;;;;4996699;28;19974;-86
2022/04/18 00:43:23;;;;;;;;;;;;;;;;;;4984640;28;19975;-86
2022/04/18 00:45:50;;;;;;;;;;;;;;;;;;4964426;28;19932;-86
2022/04/18 00:48:16;;;;;;;;;;;;;;;;;;4986849;28;19947;-86
2022/04/18 00:50:51;;;;;;;;;;;;;;;;;;5007137;28;19922;-86
2022/04/18 00:53:19;;;;;;;;;;;;;;;;;;4986422;28;20054;-86
2022/04/18 00:55:48;;;;;;;;;;;;;;;;;;5001817;28;19929;-86
2022/04/18 00:58:16;;;;;;;;;;;;;;;;;;4987651;28;19925;-86
2022/04/18 01:00:42;;;;;;;;;;;;;;;;;;4987810;28;19925;-86
2022/04/18 01:03:10;;;;;;;;;;;;;;;;;;4982349;28;19936;-86
2022/04/18 01:05:37;;;;;;;;;;;;;;;;;;4967295;28;19922;-86
2022/04/18 01:08:04;;;;;;;;;;;;;;;;;;4983482;28;20507;-86
2022/04/18 01:10:45;;;;;;;;;;;;;;;;;;4983447;28;20446;-87
2022/04/18 01:13:11;;;;;;;;;;;;;;;;;;4947960;28;19925;-86
2022/04/18 01:15:40;;;;;;;;;;;;;;;;;;4981345;28;19934;-86
2022/04/18 01:18:07;;;;;;;;;;;;;;;;;;4960526;28;19936;-86
2022/04/18 01:20:36;;;;;;;;;;;;;;;;;;4974911;28;19941;-86
2022/04/18 01:23:20;;;;;;;;;;;;;;;;;;4968803;28;20046;-86
2022/04/18 01:28:59;;;;;;;;;;;;;;;;;;4987285;28;19952;-85
2022/04/18 01:31:27;;;;;;;;;;;;;;;;;;4975251;28;19929;-86
2022/04/18 01:33:54;;;;;;;;;;;;;;;;;;4943100;28;19922;-86
2022/04/18 01:36:21;;;;;;;;;;;;;;;;;;4934480;28;19965;-86
2022/04/18 01:38:51;;;;;;;;;;;;;;;;;;4963437;28;19921;-86
2022/04/18 01:41:18;;;;;;;;;;;;;;;;;;4957762;28;20451;-86
2022/04/18 01:43:44;;;;;;;;;;;;;;;;;;4968450;28;20428;-85
2022/04/18 01:46:15;;;;;;;;;;;;;;;;;;4986241;28;20056;-85
2022/04/18 01:48:41;;;;;;;;;;;;;;;;;;4971344;28;20633;-86
2022/04/18 01:51:08;;;;;;;;;;;;;;;;;;4985063;28;19929;-86
2022/04/18 01:53:34;;;;;;;;;;;;;;;;;;4974395;28;19929;-86
2022/04/18 01:56:02;;;;;;;;;;;;;;;;;;5000678;28;19925;-86
2022/04/18 01:58:48;;;;;;;;;;;;;;;;;;4947054;28;20016;-86
2022/04/18 02:01:17;;;;;;;;;;;;;;;;;;4948333;28;19930;-86
2022/04/18 02:03:46;;;;;;;;;;;;;;;;;;4946946;28;21624;-86
2022/04/18 02:06:14;;;;;;;;;;;;;;;;;;4948667;28;19949;-86
2022/04/18 02:08:41;;;;;;;;;;;;;;;;;;4947915;28;20025;-86
2022/04/18 02:11:32;;;;;;;;;;;;;;;;;;4870741;29;19957;-86
2022/04/18 02:14:00;;;;;;;;;;;;;;;;;;4865764;29;19927;-86
2022/04/18 02:16:28;;;;;;;;;;;;;;;;;;4851840;29;19983;-86
2022/04/18 02:18:55;;;;;;;;;;;;;;;;;;4866817;29;19927;-86
2022/04/18 02:21:21;;;;;;;;;;;;;;;;;;4858868;29;20283;-86
2022/04/18 02:23:47;;;;;;;;;;;;;;;;;;4876269;29;19970;-86
2022/04/18 02:26:13;;;;;;;;;;;;;;;;;;4853438;29;19927;-86
2022/04/18 02:28:41;;;;;;;;;;;;;;;;;;4875951;28;19932;-86
2022/04/18 02:31:08;;;;;;;;;;;;;;;;;;4923932;28;21354;-86
2022/04/18 02:33:53;;;;;;;;;;;;;;;;;;4944139;28;19961;-86
2022/04/18 02:36:20;;;;;;;;;;;;;;;;;;4930572;28;19930;-86
2022/04/18 02:38:46;;;;;;;;;;;;;;;;;;4930311;28;20404;-86
2022/04/18 02:41:12;;;;;;;;;;;;;;;;;;4945580;28;20001;-86
2022/04/18 02:43:46;;;;;;;;;;;;;;;;;;4986412;28;19936;-86
2022/04/18 02:46:19;;;;;;;;;;;;;;;;;;4985308;28;19929;-86
2022/04/18 02:48:46;;;;;;;;;;;;;;;;;;4986947;28;19929;-86
2022/04/18 02:51:32;;;;;;;;;;;;;;;;;;5008655;28;19955;-86
2022/04/18 02:54:09;;;;;;;;;;;;;;;;;;5001204;28;19936;-86
2022/04/18 02:56:36;;;;;;;;;;;;;;;;;;5005508;28;19980;-85
2022/04/18 02:59:03;;;;;;;;;;;;;;;;;;4983390;28;20473;-86
2022/04/18 03:01:30;;;;;;;;;;;;;;;;;;5004194;28;20035;-86
2022/04/18 03:03:57;;;;;;;;;;;;;;;;;;4978764;28;19925;-86
2022/04/18 03:06:24;;;;;;;;;;;;;;;;;;4987857;28;20438;-86
2022/04/18 03:08:52;;;;;;;;;;;;;;;;;;4983813;28;19964;-86
2022/04/18 03:11:19;;;;;;;;;;;;;;;;;;5002873;28;19929;-86
2022/04/18 03:13:47;;;;;;;;;;;;;;;;;;4985801;28;20011;-86
2022/04/18 03:16:14;;;;;;;;;;;;;;;;;;4982163;28;19936;-86
2022/04/18 03:18:46;;;;;;;;;;;;;;;;;;4986462;28;20370;-86
2022/04/18 03:21:14;;;;;;;;;;;;;;;;;;4994497;28;19921;-86
2022/04/18 03:23:44;;;;;;;;;;;;;;;;;;4988047;28;19991;-86
2022/04/18 03:26:15;;;;;;;;;;;;;;;;;;5007310;28;19944;-86
2022/04/18 03:28:42;;;;;;;;;;;;;;;;;;4990821;28;19925;-86
2022/04/18 03:31:08;;;;;;;;;;;;;;;;;;4986491;28;20399;-86
2022/04/18 03:33:35;;;;;;;;;;;;;;;;;;5004480;28;20032;-86
2022/04/18 03:41:49;;;;;;;;;;;;;;;;;;4978452;28;20017;-86
2022/04/18 03:44:35;;;;;;;;;;;;;;;;;;4913210;28;20013;-86
2022/04/18 03:47:02;;;;;;;;;;;;;;;;;;4905455;28;19933;-86
2022/04/18 03:49:28;;;;;;;;;;;;;;;;;;4894794;28;19926;-86
2022/04/18 03:51:55;;;;;;;;;;;;;;;;;;4908297;28;19937;-86
2022/04/18 03:54:21;;;;;;;;;;;;;;;;;;4914185;28;20285;-86
2022/04/18 03:56:48;;;;;;;;;;;;;;;;;;4892261;28;19941;-86
2022/04/18 03:59:15;;;;;;;;;;;;;;;;;;4927635;28;19931;-86
2022/04/18 04:01:41;;;;;;;;;;;;;;;;;;4928196;28;19930;-86
2022/04/18 04:04:07;;;;;;;;;;;;;;;;;;4924349;28;22053;-86
2022/04/18 04:06:40;;;;;;;;;;;;;;;;;;4910696;28;19993;-85
2022/04/18 04:09:07;;;;;;;;;;;;;;;;;;4907650;28;19926;-86
2022/04/18 04:11:34;;;;;;;;;;;;;;;;;;4913063;28;20540;-85
2022/04/18 04:14:02;;;;;;;;;;;;;;;;;;4925236;28;19926;-86
2022/04/18 04:16:29;;;;;;;;;;;;;;;;;;5014927;28;19940;-86
2022/04/18 04:18:55;;;;;;;;;;;;;;;;;;5003058;28;20280;-85
2022/04/18 04:21:37;;;;;;;;;;;;;;;;;;4982859;28;20019;-86
2022/04/18 04:24:04;;;;;;;;;;;;;;;;;;4975205;28;19922;-85
2022/04/18 04:26:31;;;;;;;;;;;;;;;;;;4980389;28;20359;-86
2022/04/18 04:28:57;;;;;;;;;;;;;;;;;;4961752;28;19930;-85
2022/04/18 04:31:23;;;;;;;;;;;;;;;;;;4976494;28;19945;-86
2022/04/18 04:33:51;;;;;;;;;;;;;;;;;;4960213;28;19984;-86
2022/04/18 04:36:18;;;;;;;;;;;;;;;;;;4985032;28;20881;-86
2022/04/18 04:38:45;;;;;;;;;;;;;;;;;;4981886;28;20340;-86
2022/04/18 04:41:12;;;;;;;;;;;;;;;;;;4960377;28;19930;-86
2022/04/18 04:43:38;;;;;;;;;;;;;;;;;;4976772;28;19937;-86
2022/04/18 04:46:05;;;;;;;;;;;;;;;;;;4977938;28;20052;-86
2022/04/18 04:48:32;;;;;;;;;;;;;;;;;;4967277;28;20036;-86
2022/04/18 04:51:00;;;;;;;;;;;;;;;;;;4978970;28;21263;-86
2022/04/18 04:53:27;;;;;;;;;;;;;;;;;;4997876;28;20009;-86
2022/04/18 04:55:55;;;;;;;;;;;;;;;;;;5019807;28;19926;-86
2022/04/18 04:58:21;;;;;;;;;;;;;;;;;;4990686;28;19929;-86
2022/04/18 05:00:54;;;;;;;;;;;;;;;;;;5000657;28;19975;-86
2022/04/18 05:03:21;;;;;;;;;;;;;;;;;;5019426;28;19929;-86
2022/04/18 05:05:47;;;;;;;;;;;;;;;;;;5001604;28;19987;-86
2022/04/18 05:08:15;;;;;;;;;;;;;;;;;;5008041;28;19924;-86
2022/04/18 05:10:42;;;;;;;;;;;;;;;;;;5006470;28;19960;-86
2022/04/18 05:13:09;;;;;;;;;;;;;;;;;;5002666;28;20502;-86
2022/04/18 05:15:37;;;;;;;;;;;;;;;;;;5005512;28;20284;-86
2022/04/18 05:18:24;;;;;;;;;;;;;;;;;;4964653;28;20008;-86
2022/04/18 05:20:51;;;;;;;;;;;;;;;;;;4970375;28;19922;-86
2022/04/18 05:23:17;;;;;;;;;;;;;;;;;;4949068;28;19933;-86
2022/04/18 05:25:45;;;;;;;;;;;;;;;;;;4968213;28;19972;-86
2022/04/18 05:28:12;;;;;;;;;;;;;;;;;;4956224;28;20016;-86
2022/04/18 05:30:39;;;;;;;;;;;;;;;;;;4948039;28;22400;-86
2022/04/18 05:33:06;;;;;;;;;;;;;;;;;;4962507;28;19979;-85
2022/04/18 05:35:33;;;;;;;;;;;;;;;;;;4953965;28;20195;-86
2022/04/18 05:38:15;;;;;;;;;;;;;;;;;;4925480;28;20326;-86
2022/04/18 05:40:41;;;;;;;;;;;;;;;;;;4892076;28;19937;-86
2022/04/18 05:43:11;;;;;;;;;;;;;;;;;;4899439;28;22135;-86
2022/04/18 05:45:38;;;;;;;;;;;;;;;;;;4924966;28;20392;-86
2022/04/18 05:48:05;;;;;;;;;;;;;;;;;;4905698;28;20074;-86
2022/04/18 05:50:45;;;;;;;;;;;;;;;;;;4898624;29;19922;-86
2022/04/18 05:53:12;;;;;;;;;;;;;;;;;;4905304;28;20017;-86
2022/04/18 05:55:43;;;;;;;;;;;;;;;;;;4929681;28;19930;-85
2022/04/18 05:58:10;;;;;;;;;;;;;;;;;;4923240;28;20005;-86
2022/04/18 06:00:37;;;;;;;;;;;;;;;;;;4910709;28;19931;-87
2022/04/18 06:03:03;;;;;;;;;;;;;;;;;;4920825;28;22341;-87
2022/04/18 06:05:32;;;;;;;;;;;;;;;;;;4929195;28;19926;-86
2022/04/18 06:07:58;;;;;;;;;;;;;;;;;;4922593;28;19930;-86
2022/04/18 06:10:25;;;;;;;;;;;;;;;;;;4946422;28;19953;-86
2022/04/18 06:12:53;;;;;;;;;;;;;;;;;;4924129;28;19946;-86
2022/04/18 06:15:20;;;;;;;;;;;;;;;;;;4967537;28;19956;-86
2022/04/18 06:17:47;;;;;;;;;;;;;;;;;;5009284;28;19929;-86
2022/04/18 06:20:13;;;;;;;;;;;;;;;;;;5008126;28;19925;-86
2022/04/18 06:22:40;;;;;;;;;;;;;;;;;;5012602;28;19929;-86
2022/04/18 06:25:08;;;;;;;;;;;;;;;;;;5008403;28;23952;-86
2022/04/18 06:27:35;;;;;;;;;;;;;;;;;;5007916;28;19924;-86
2022/04/18 06:30:02;;;;;;;;;;;;;;;;;;5002507;28;19929;-86
2022/04/18 06:32:28;;;;;;;;;;;;;;;;;;4984393;28;20063;-86
2022/04/18 06:34:58;;;;;;;;;;;;;;;;;;4985730;28;20269;-86
2022/04/18 06:37:25;;;;;;;;;;;;;;;;;;4990777;28;19933;-86
2022/04/18 06:39:53;;;;;;;;;;;;;;;;;;4973197;28;20287;-86
2022/04/18 06:42:20;;;;;;;;;;;;;;;;;;4976686;28;20260;-86
2022/04/18 06:44:50;;;;;;;;;;;;;;;;;;5004905;28;19971;-86
2022/04/18 06:47:19;;;;;;;;;;;;;;;;;;4991548;28;19944;-86
2022/04/18 06:49:47;;;;;;;;;;;;;;;;;;4990539;28;19929;-86
2022/04/18 06:52:14;;;;;;;;;;;;;;;;;;4974173;28;19922;-86
2022/04/18 06:54:40;;;;;;;;;;;;;;;;;;4988948;28;20338;-86
2022/04/18 06:57:08;;;;;;;;;;;;;;;;;;4987936;28;19933;-86
2022/04/18 06:59:49;;;;;;;;;;;;;;;;;;4927433;28;19927;-86
2022/04/18 07:02:15;;;;;;;;;;;;;;;;;;4913057;28;20496;-86
2022/04/18 07:04:41;;;;;;;;;;;;;;;;;;4915722;28;19931;-86
2022/04/18 07:07:08;;;;;;;;;;;;;;;;;;4929250;28;19930;-86
2022/04/18 07:09:35;;;;;;;;;;;;;;;;;;4912490;28;19997;-86
2022/04/18 07:12:01;;;;;;;;;;;;;;;;;;4907533;28;19977;-86
2022/04/18 07:14:46;;;;;;;;;;;;;;;;;;4914311;28;20010;-86
2022/04/18 07:17:14;;;;;;;;;;;;;;;;;;4918309;28;19934;-86
2022/04/18 07:19:42;;;;;;;;;;;;;;;;;;4916683;28;20444;-87
2022/04/18 07:22:10;;;;;;;;;;;;;;;;;;4896698;28;19926;-86
2022/04/18 07:24:36;;;;;;;;;;;;;;;;;;4915291;28;20333;-86
2022/04/18 07:27:11;;;;;;;;;;;;;;;;;;4909790;28;19929;-86
2022/04/18 07:29:39;;;;;;;;;;;;;;;;;;4917174;28;19968;-86
2022/04/18 07:32:27;;;;;;;;;;;;;;;;;;4930634;28;19980;-87
2022/04/18 07:34:54;;;;;;;;;;;;;;;;;;4911609;28;20017;-87
2022/04/18 07:40:48;;;;;;;;;;;;;;;;;;4941689;28;19933;-86
2022/04/18 07:43:15;;;;;;;;;;;;;;;;;;4930061;28;19989;-85
2022/04/18 07:45:41;;;;;;;;;;;;;;;;;;4931203;28;19937;-86
2022/04/18 07:48:10;;;;;;;;;;;;;;;;;;4948257;28;19961;-86
2022/04/18 07:53:26;;;;;;;;;;;;;;;;;;4950344;28;19936;-87
2022/04/18 07:55:53;;;;;;;;;;;;;;;;;;4946003;28;20027;-87
2022/04/18 07:58:21;;;;;;;;;;;;;;;;;;4929938;28;19931;-86
2022/04/18 08:00:48;;;;;;;;;;;;;;;;;;4934244;28;20012;-86
2022/04/18 08:03:34;;;;;;;;;;;;;;;;;;4949576;28;20316;-86
2022/04/18 08:06:10;;;;;;;;;;;;;;;;;;4926782;28;19937;-86
2022/04/18 08:08:38;;;;;;;;;;;;;;;;;;4928535;28;20876;-86
2022/04/18 08:11:23;;;;;;;;;;;;;;;;;;4952761;28;19937;-86
2022/04/18 08:13:49;;;;;;;;;;;;;;;;;;4958979;28;20406;-86
2022/04/18 08:16:16;;;;;;;;;;;;;;;;;;4971080;28;19937;-86
2022/04/18 08:18:44;;;;;;;;;;;;;;;;;;4993311;28;19926;-86
2022/04/18 08:21:17;;;;;;;;;;;;;;;;;;4990378;28;20012;-86
2022/04/18 08:23:45;;;;;;;;;;;;;;;;;;4980349;28;19985;-86
2022/04/18 08:26:10;;;;;;;;;;;;;;;;;;4957601;28;19932;-86
2022/04/18 08:28:38;;;;;;;;;;;;;;;;;;4976941;28;19929;-86
2022/04/18 08:31:05;;;;;;;;;;;;;;;;;;4975147;28;19925;-86
2022/04/18 08:33:34;;;;;;;;;;;;;;;;;;4996106;28;20000;-86
2022/04/18 08:36:01;;;;;;;;;;;;;;;;;;5015097;28;19929;-86
2022/04/18 08:38:26;;;;;;;;;;;;;;;;;;5014950;28;19976;-86
2022/04/18 08:41:04;;;;;;;;;;;;;;;;;;5007072;28;19925;-86
2022/04/18 08:43:31;;;;;;;;;;;;;;;;;;5019003;28;20337;-86
2022/04/18 08:45:57;;;;;;;;;;;;;;;;;;5014426;28;19929;-86
2022/04/18 08:54:00;;;;;;;;;;;;;;;;;;5014269;28;19928;-86
2022/04/18 08:56:27;;;;;;;;;;;;;;;;;;5018751;28;20360;-86
2022/04/18 08:58:56;;;;;;;;;;;;;;;;;;5011413;28;19928;-87
2022/04/18 09:01:22;;;;;;;;;;;;;;;;;;5015097;28;19929;-86
2022/04/18 09:04:06;;;;;;;;;;;;;;;;;;4970701;28;21211;-86
2022/04/18 09:06:47;;;;;;;;;;;;;;;;;;4917330;29;20567;-86
2022/04/18 09:09:29;;;;;;;;;;;;;;;;;;4924288;29;19968;-86
2022/04/18 09:12:26;;;;;;;;;;;;;;;;;;4928273;29;20134;-86
2022/04/18 09:14:54;;;;;;;;;;;;;;;;;;4904636;29;19923;-87
2022/04/18 09:17:21;;;;;;;;;;;;;;;;;;4905375;29;19926;-86
2022/04/18 09:19:47;;;;;;;;;;;;;;;;;;4891235;29;19927;-86
2022/04/18 09:22:20;;;;;;;;;;;;;;;;;;4906889;29;19978;-86
2022/04/18 09:24:47;;;;;;;;;;;;;;;;;;4905829;29;19934;-86
2022/04/18 09:27:18;;;;;;;;;;;;;;;;;;4920295;29;19923;-86
2022/04/18 09:29:47;;;;;;;;;;;;;;;;;;4908600;29;20358;-86
2022/04/18 09:32:14;;;;;;;;;;;;;;;;;;4919649;28;19934;-86
2022/04/18 09:34:41;;;;;;;;;;;;;;;;;;4928044;28;20359;-87
2022/04/18 09:37:11;;;;;;;;;;;;;;;;;;4965236;28;19979;-86
2022/04/18 09:39:39;;;;;;;;;;;;;;;;;;4966765;28;20409;-86
2022/04/18 09:42:06;;;;;;;;;;;;;;;;;;4964871;28;19925;-86
2022/04/18 09:44:34;;;;;;;;;;;;;;;;;;4975759;28;19925;-86
2022/04/18 09:47:01;;;;;;;;;;;;;;;;;;5025501;28;19921;-86
2022/04/18 09:49:28;;;;;;;;;;;;;;;;;;4994510;28;19925;-87
2022/04/18 09:51:57;;;;;;;;;;;;;;;;;;5009083;28;19947;-86
2022/04/18 09:54:38;;;;;;;;;;;;;;;;;;4990822;28;20005;-86
2022/04/18 09:57:05;;;;;;;;;;;;;;;;;;4970526;28;19933;-86
2022/04/18 09:59:31;;;;;;;;;;;;;;;;;;4988807;28;20032;-86
2022/04/18 10:01:58;;;;;;;;;;;;;;;;;;4970695;28;19928;-87
2022/04/18 10:04:26;;;;;;;;;;;;;;;;;;4971902;28;20566;-86
2022/04/18 10:06:53;;;;;;;;;;;;;;;;;;4967849;28;20015;-86
2022/04/18 10:09:20;;;;;;;;;;;;;;;;;;4959106;28;20008;-87
2022/04/18 10:11:47;;;;;;;;;;;;;;;;;;4970097;28;20011;-84
2022/04/18 10:14:15;;;;;;;;;;;;;;;;;;4975227;28;19969;-83
2022/04/18 10:16:44;;;;;;;;;;;;;;;;;;4989560;28;19933;-84
2022/04/18 10:19:13;;;;;;;;;;;;;;;;;;4985708;28;19975;-83
2022/04/18 10:21:40;;;;;;;;;;;;;;;;;;4983714;28;19929;-84
2022/04/18 10:24:09;;;;;;;;;;;;;;;;;;4989347;28;24299;-84
2022/04/18 10:26:35;;;;;;;;;;;;;;;;;;5013983;28;20360;-83
2022/04/18 10:29:03;;;;;;;;;;;;;;;;;;5014484;28;19935;-83
2022/04/18 10:31:29;;;;;;;;;;;;;;;;;;5014761;28;19933;-83
2022/04/18 10:33:55;;;;;;;;;;;;;;;;;;4986517;28;19933;-83
2022/04/18 10:36:22;;;;;;;;;;;;;;;;;;4988410;28;19933;-82
2022/04/18 10:38:49;;;;;;;;;;;;;;;;;;4989939;28;19929;-83
2022/04/18 10:41:31;;;;;;;;;;;;;;;;;;4974931;28;20395;-83
2022/04/18 10:43:59;;;;;;;;;;;;;;;;;;4982150;28;20403;-83
2022/04/18 10:46:26;;;;;;;;;;;;;;;;;;4971243;28;19929;-82
2022/04/18 10:48:54;;;;;;;;;;;;;;;;;;4978007;28;20499;-83
2022/04/18 10:51:21;;;;;;;;;;;;;;;;;;4994404;28;20404;-81
2022/04/18 10:53:48;;;;;;;;;;;;;;;;;;4991953;28;20258;-81
2022/04/18 10:56:30;;;;;;;;;;;;;;;;;;4937506;28;19977;-81
2022/04/18 10:59:00;;;;;;;;;;;;;;;;;;4916206;28;19930;-81
2022/04/18 11:01:28;;;;;;;;;;;;;;;;;;4938434;28;20413;-81
2022/04/18 11:04:10;;;;;;;;;;;;;;;;;;4933380;28;21333;-81
2022/04/18 11:06:40;;;;;;;;;;;;;;;;;;4936726;28;19930;-82
2022/04/18 11:09:07;;;;;;;;;;;;;;;;;;4916889;28;20025;-82
2022/04/18 11:11:35;;;;;;;;;;;;;;;;;;4926150;28;20013;-81
2022/04/18 11:14:02;;;;;;;;;;;;;;;;;;4932992;28;19978;-81
2022/04/18 11:16:38;;;;;;;;;;;;;;;;;;4955313;28;20052;-81
2022/04/18 11:19:06;;;;;;;;;;;;;;;;;;4947241;28;20009;-81
2022/04/18 11:21:36;;;;;;;;;;;;;;;;;;4957630;28;19926;-81
2022/04/18 11:24:03;;;;;;;;;;;;;;;;;;4950025;28;20049;-81
2022/04/18 11:26:30;;;;;;;;;;;;;;;;;;4943480;28;20361;-82
2022/04/18 11:28:58;;;;;;;;;;;;;;;;;;5012706;28;20374;-81
2022/04/18 11:31:30;;;;;;;;;;;;;;;;;;4995181;28;19941;-82
2022/04/18 11:33:57;;;;;;;;;;;;;;;;;;5003786;28;19932;-81
2022/04/18 11:36:23;;;;;;;;;;;;;;;;;;5017239;28;20362;-81
2022/04/18 11:38:49;;;;;;;;;;;;;;;;;;5008161;28;19952;-82
2022/04/18 11:41:22;;;;;;;;;;;;;;;;;;5013962;28;19932;-81
2022/04/18 11:43:48;;;;;;;;;;;;;;;;;;5014910;28;19921;-81
2022/04/18 11:46:21;;;;;;;;;;;;;;;;;;5011214;28;20263;-81
2022/04/18 11:48:48;;;;;;;;;;;;;;;;;;5011248;28;19936;-81
2022/04/18 11:51:15;;;;;;;;;;;;;;;;;;5015051;28;19928;-81
2022/04/18 11:53:41;;;;;;;;;;;;;;;;;;5014936;28;19999;-81
2022/04/18 11:56:09;;;;;;;;;;;;;;;;;;5008123;28;22946;-81
2022/04/18 11:58:44;;;;;;;;;;;;;;;;;;5014262;28;19935;-81
2022/04/18 12:06:45;;;;;;;;;;;;;;;;;;5014020;28;19975;-82
2022/04/18 12:09:15;;;;;;;;;;;;;;;;;;5014856;28;19932;-82
2022/04/18 12:11:43;;;;;;;;;;;;;;;;;;5014780;28;20016;-82
2022/04/18 12:14:25;;;;;;;;;;;;;;;;;;5014181;28;19930;-81
2022/04/18 12:16:53;;;;;;;;;;;;;;;;;;5009210;28;19926;-81
2022/04/18 12:19:21;;;;;;;;;;;;;;;;;;5014736;28;20016;-82
2022/04/18 12:21:49;;;;;;;;;;;;;;;;;;5017755;28;19999;-81
2022/04/18 12:24:16;;;;;;;;;;;;;;;;;;5009797;28;19935;-82
2022/04/18 12:26:43;;;;;;;;;;;;;;;;;;5013697;28;20380;-82
2022/04/18 12:29:09;;;;;;;;;;;;;;;;;;5004096;28;20317;-82
2022/04/18 12:31:36;;;;;;;;;;;;;;;;;;5015005;28;19966;-82
2022/04/18 12:34:03;;;;;;;;;;;;;;;;;;5010881;28;20008;-82
2022/04/18 12:36:30;;;;;;;;;;;;;;;;;;5015619;28;19933;-81
2022/04/18 12:38:57;;;;;;;;;;;;;;;;;;5011774;28;19979;-82
2022/04/18 12:41:23;;;;;;;;;;;;;;;;;;5015449;28;19929;-82
2022/04/18 12:43:55;;;;;;;;;;;;;;;;;;5010022;28;19968;-82
2022/04/18 12:46:21;;;;;;;;;;;;;;;;;;5015075;28;20012;-82
2022/04/18 12:49:02;;;;;;;;;;;;;;;;;;4988237;28;19988;-82
2022/04/18 12:51:29;;;;;;;;;;;;;;;;;;4958038;28;20335;-81
2022/04/18 12:53:56;;;;;;;;;;;;;;;;;;4972631;28;20002;-81
2022/04/18 12:56:24;;;;;;;;;;;;;;;;;;4979119;28;20335;-82
2022/04/18 12:58:51;;;;;;;;;;;;;;;;;;4977800;28;20297;-82
2022/04/18 13:01:18;;;;;;;;;;;;;;;;;;4998625;28;19929;-82
2022/04/18 13:03:45;;;;;;;;;;;;;;;;;;4982036;28;19956;-82
2022/04/18 13:06:13;;;;;;;;;;;;;;;;;;4978499;28;19968;-81
2022/04/18 13:08:41;;;;;;;;;;;;;;;;;;4983711;28;19956;-82
2022/04/18 13:11:11;;;;;;;;;;;;;;;;;;4957640;28;19936;-81
2022/04/18 13:13:38;;;;;;;;;;;;;;;;;;4960365;28;19983;-81
2022/04/18 13:16:05;;;;;;;;;;;;;;;;;;4973443;28;20713;-82
2022/04/18 13:18:33;;;;;;;;;;;;;;;;;;4996880;28;20683;-82
2022/04/18 13:21:00;;;;;;;;;;;;;;;;;;5012048;28;19979;-81
2022/04/18 13:23:27;;;;;;;;;;;;;;;;;;5017629;28;19921;-82
2022/04/18 13:25:53;;;;;;;;;;;;;;;;;;5009214;28;19973;-84
2022/04/18 13:28:20;;;;;;;;;;;;;;;;;;5015445;28;20020;-82
2022/04/18 13:30:49;;;;;;;;;;;;;;;;;;5011482;28;19921;-82
2022/04/18 13:33:17;;;;;;;;;;;;;;;;;;5018139;28;19987;-83
2022/04/18 13:45:38;;;;;;;;;;;;;;;;;;;;;
2022/04/18 13:48:32;;;;;;;;;;;;;;;;;;4862559;29;19924;-83
2022/04/18 13:58:12;;;;;;;;;;;;;;;;;;;;;
2022/04/18 14:22:04;;;;;;;;;;;;;;;;;;4853967;29;19928;-83
2022/04/18 14:24:31;;;;;;;;;;;;;;;;;;4861643;29;19927;-83
2022/04/18 14:26:58;;;;;;;;;;;;;;;;;;4852966;29;20558;-83
2022/04/18 14:29:24;;;;;;;;;;;;;;;;;;4863714;29;19988;-83
2022/04/18 14:31:51;;;;;;;;;;;;;;;;;;4895354;28;19932;-82
2022/04/18 14:34:18;;;;;;;;;;;;;;;;;;4905824;29;20330;-83
2022/04/18 14:36:44;;;;;;;;;;;;;;;;;;4916905;29;21696;-83
2022/04/18 14:39:18;;;;;;;;;;;;;;;;;;4910095;29;19929;-82
2022/04/18 14:41:46;;;;;;;;;;;;;;;;;;4921219;29;19930;-82
2022/04/18 14:44:22;;;;;;;;;;;;;;;;;;4922323;28;19927;-83
2022/04/18 14:46:49;;;;;;;;;;;;;;;;;;4916497;29;19967;-83
2022/04/18 14:49:17;;;;;;;;;;;;;;;;;;4913041;28;19934;-84
2022/04/18 14:51:44;;;;;;;;;;;;;;;;;;4966781;28;19964;-83
2022/04/18 14:54:11;;;;;;;;;;;;;;;;;;4950787;28;21883;-83
2022/04/18 14:56:38;;;;;;;;;;;;;;;;;;4973789;28;20293;-83
2022/04/18 14:59:05;;;;;;;;;;;;;;;;;;4976008;28;19921;-83
2022/04/18 15:01:35;;;;;;;;;;;;;;;;;;4960786;28;20019;-83
2022/04/18 15:04:11;;;;;;;;;;;;;;;;;;4960997;28;19922;-83
2022/04/18 15:06:37;;;;;;;;;;;;;;;;;;4978040;28;20020;-83
2022/04/18 15:09:05;;;;;;;;;;;;;;;;;;4974294;28;19930;-83
2022/04/18 15:11:33;;;;;;;;;;;;;;;;;;4970385;28;19936;-82
2022/04/18 15:14:01;;;;;;;;;;;;;;;;;;4958545;28;20514;-83
2022/04/18 15:16:31;;;;;;;;;;;;;;;;;;4962729;28;20467;-82
2022/04/18 15:18:58;;;;;;;;;;;;;;;;;;4971703;28;19926;-83
2022/04/18 15:21:25;;;;;;;;;;;;;;;;;;4955033;28;19921;-82
2022/04/18 15:24:12;;;;;;;;;;;;;;;;;;4942588;28;20415;-82
2022/04/18 15:26:40;;;;;;;;;;;;;;;;;;4972342;28;20016;-82
2022/04/18 15:29:07;;;;;;;;;;;;;;;;;;4969544;28;19921;-83
2022/04/18 15:34:26;;;;;;;;;;;;;;;;;;4984078;28;19936;-83
2022/04/18 15:36:53;;;;;;;;;;;;;;;;;;4988729;28;19929;-83
2022/04/18 15:39:21;;;;;;;;;;;;;;;;;;4996047;28;19924;-83
2022/04/18 15:41:47;;;;;;;;;;;;;;;;;;4977600;28;19929;-85
2022/04/18 15:44:16;;;;;;;;;;;;;;;;;;5010524;28;19992;-84
2022/04/18 15:46:44;;;;;;;;;;;;;;;;;;4993237;28;19921;-84
2022/04/18 15:49:12;;;;;;;;;;;;;;;;;;4987594;28;19925;-84
2022/04/18 15:51:40;;;;;;;;;;;;;;;;;;4994473;28;19929;-84
2022/04/18 15:54:07;;;;;;;;;;;;;;;;;;4986282;28;20598;-84
2022/04/18 15:56:39;;;;;;;;;;;;;;;;;;5005023;28;19936;-83
2022/04/18 15:59:09;;;;;;;;;;;;;;;;;;5002312;28;20182;-83
2022/04/18 16:01:36;;;;;;;;;;;;;;;;;;4990054;28;19925;-83
2022/04/18 16:04:05;;;;;;;;;;;;;;;;;;4984649;28;20485;-83
2022/04/18 16:06:31;;;;;;;;;;;;;;;;;;4993115;28;19993;-84
2022/04/18 16:08:58;;;;;;;;;;;;;;;;;;5005261;28;19925;-83
2022/04/18 16:11:27;;;;;;;;;;;;;;;;;;5024788;28;19920;-83
2022/04/18 16:13:53;;;;;;;;;;;;;;;;;;5008422;28;19935;-83
2022/04/18 16:16:34;;;;;;;;;;;;;;;;;;4955319;28;20016;-83
2022/04/18 16:19:01;;;;;;;;;;;;;;;;;;4963258;28;20021;-83
2022/04/18 16:21:28;;;;;;;;;;;;;;;;;;4968801;28;19930;-83
2022/04/18 16:23:56;;;;;;;;;;;;;;;;;;4964350;28;19922;-83
2022/04/18 16:26:23;;;;;;;;;;;;;;;;;;4953105;28;19986;-83
2022/04/18 16:28:50;;;;;;;;;;;;;;;;;;4963292;28;19930;-83
2022/04/18 16:34:04;;;;;;;;;;;;;;;;;;4964234;28;20443;-83
2022/04/18 16:36:31;;;;;;;;;;;;;;;;;;4946225;28;19938;-83
2022/04/18 16:39:05;;;;;;;;;;;;;;;;;;4966273;28;19944;-83
2022/04/18 16:47:07;;;;;;;;;;;;;;;;;;4975653;28;19967;-83
2022/04/18 16:49:33;;;;;;;;;;;;;;;;;;4994416;28;20335;-83
2022/04/18 16:52:03;;;;;;;;;;;;;;;;;;4990853;28;19928;-83
2022/04/18 16:54:32;;;;;;;;;;;;;;;;;;4996159;28;19925;-83
2022/04/18 16:57:08;;;;;;;;;;;;;;;;;;5011059;28;19933;-83
2022/04/18 16:59:36;;;;;;;;;;;;;;;;;;4995364;28;19925;-83
2022/04/18 17:02:21;;;;;;;;;;;;;;;;;;4954010;28;20404;-83
2022/04/18 17:04:47;;;;;;;;;;;;;;;;;;4954601;28;20009;-83
2022/04/18 17:07:14;;;;;;;;;;;;;;;;;;4952502;28;19928;-85
2022/04/18 17:09:41;;;;;;;;;;;;;;;;;;4953636;28;19926;-83
2022/04/18 17:12:07;;;;;;;;;;;;;;;;;;4926085;28;21260;-83
2022/04/18 17:14:40;;;;;;;;;;;;;;;;;;4934254;28;19979;-83
2022/04/18 17:17:07;;;;;;;;;;;;;;;;;;4931006;28;19925;-84
2022/04/18 17:19:35;;;;;;;;;;;;;;;;;;4951114;28;20004;-84
2022/04/18 17:22:02;;;;;;;;;;;;;;;;;;4949059;28;19926;-85
2022/04/18 17:24:29;;;;;;;;;;;;;;;;;;4952182;28;19926;-85
2022/04/18 17:26:56;;;;;;;;;;;;;;;;;;4932377;28;20281;-85
2022/04/18 17:29:23;;;;;;;;;;;;;;;;;;4935609;28;19974;-83
2022/04/18 17:31:50;;;;;;;;;;;;;;;;;;4946215;28;19929;-83
2022/04/18 17:34:18;;;;;;;;;;;;;;;;;;5004149;28;20291;-83
2022/04/18 17:36:45;;;;;;;;;;;;;;;;;;5009171;28;20090;-84
2022/04/18 17:39:12;;;;;;;;;;;;;;;;;;5020583;28;20407;-84
2022/04/18 17:41:40;;;;;;;;;;;;;;;;;;5007555;28;20357;-83
2022/04/18 17:44:06;;;;;;;;;;;;;;;;;;4999366;28;20054;-83
2022/04/18 17:46:33;;;;;;;;;;;;;;;;;;4994035;28;20499;-83
2022/04/18 17:49:04;;;;;;;;;;;;;;;;;;5006757;28;19921;-84
2022/04/18 17:51:32;;;;;;;;;;;;;;;;;;5010255;28;19931;-84
2022/04/18 17:56:47;;;;;;;;;;;;;;;;;;5012342;28;20002;-84
2022/04/18 17:59:25;;;;;;;;;;;;;;;;;;5006573;28;19921;-83
2022/04/18 18:01:55;;;;;;;;;;;;;;;;;;5005656;28;19928;-84
2022/04/18 18:04:22;;;;;;;;;;;;;;;;;;5011643;28;19930;-84
2022/04/18 18:06:50;;;;;;;;;;;;;;;;;;5006242;28;19925;-84
2022/04/18 18:09:19;;;;;;;;;;;;;;;;;;5008314;28;19921;-84
2022/04/18 18:11:46;;;;;;;;;;;;;;;;;;5010104;28;20695;-84
2022/04/18 18:14:14;;;;;;;;;;;;;;;;;;4987795;28;20345;-84
2022/04/18 18:16:41;;;;;;;;;;;;;;;;;;5025562;28;19926;-83